createdAt,value
2018-06-23T00:00:01.393Z,86.60
2018-06-23T00:02:28.391Z,86.97
2018-06-23T00:04:55.502Z,86.81
2018-06-23T00:07:22.605Z,86.46
2018-06-23T00:09:49.656Z,86.92
2018-06-23T00:12:16.673Z,86.09
2018-06-23T00:14:43.784Z,86.49
2018-06-23T00:17:10.978Z,86.64
2018-06-23T00:19:37.984Z,86.61
2018-06-23T00:22:05.185Z,86.33
2018-06-23T00:24:32.224Z,86.79
2018-06-23T00:26:59.269Z,86.72
2018-06-23T00:29:26.332Z,86.87
2018-06-23T00:31:53.258Z,86.23
2018-06-23T00:34:20.257Z,87.12
2018-06-23T00:36:47.253Z,86.95
2018-06-23T00:39:15.229Z,87.29
2018-06-23T00:41:42.347Z,87.94
2018-06-23T00:44:12.015Z,87.51
2018-06-23T00:46:39.053Z,87.47
2018-06-23T00:49:06.069Z,87.78
2018-06-23T00:51:33.077Z,87.72
2018-06-23T00:54:00.168Z,88.47
2018-06-23T00:56:27.252Z,88.17
2018-06-23T00:59:05.797Z,89.10
2018-06-23T01:01:32.794Z,89.49
2018-06-23T01:03:59.781Z,88.98
2018-06-23T01:06:26.788Z,87.93
2018-06-23T01:08:53.816Z,88.24
2018-06-23T01:11:20.795Z,88.01
2018-06-23T01:13:47.777Z,87.58
2018-06-23T01:16:14.949Z,89.04
2018-06-23T01:18:42.112Z,89.04
2018-06-23T01:21:09.216Z,88.84
2018-06-23T01:23:36.290Z,89.57
2018-06-23T01:26:03.247Z,89.49
2018-06-23T01:28:30.232Z,90.04
2018-06-23T01:30:57.361Z,89.87
2018-06-23T01:33:24.388Z,90.18
2018-06-23T01:35:51.453Z,90.34
2018-06-23T01:38:18.402Z,89.93
2018-06-23T01:40:45.416Z,89.83
2018-06-23T01:43:12.467Z,90.08
2018-06-23T01:45:39.530Z,89.98
2018-06-23T01:48:06.648Z,90.60
2018-06-23T01:50:33.712Z,89.81
2018-06-23T01:53:00.657Z,90.60
2018-06-23T01:55:27.775Z,90.35
2018-06-23T01:57:54.709Z,90.35
2018-06-23T02:00:21.654Z,91.33
2018-06-23T02:02:48.577Z,91.65
2018-06-23T02:05:15.530Z,91.35
2018-06-23T02:07:42.481Z,91.44
2018-06-23T02:10:09.417Z,91.33
2018-06-23T02:12:36.329Z,91.25
2018-06-23T02:15:10.164Z,90.40
2018-06-23T02:17:43.998Z,91.30
2018-06-23T02:20:16.629Z,90.99
2018-06-23T02:22:49.273Z,90.53
2018-06-23T02:25:21.941Z,90.45
2018-06-23T02:27:54.669Z,91.15
2018-06-23T02:30:27.303Z,89.79
2018-06-23T02:32:54.262Z,89.49
2018-06-23T02:35:21.614Z,90.24
2018-06-23T02:37:48.529Z,89.52
2018-06-23T02:40:15.474Z,89.12
2018-06-23T02:42:42.417Z,89.24
2018-06-23T02:45:09.334Z,88.17
2018-06-23T02:47:36.371Z,88.16
2018-06-23T02:50:03.615Z,88.31
2018-06-23T02:52:31.131Z,88.49
2018-06-23T02:54:58.049Z,88.38
2018-06-23T02:57:24.970Z,88.94
2018-06-23T02:59:51.885Z,89.47
2018-06-23T03:02:18.846Z,89.89
2018-06-23T03:04:45.773Z,90.34
2018-06-23T03:07:12.701Z,93.04
2018-06-23T03:09:39.630Z,95.56
2018-06-23T03:12:06.569Z,96.32
2018-06-23T03:14:33.476Z,97.24
2018-06-23T03:17:00.401Z,97.01
2018-06-23T03:19:27.326Z,97.51
2018-06-23T03:21:54.268Z,96.77
2018-06-23T03:24:21.189Z,96.70
2018-06-23T03:26:48.134Z,96.49
2018-06-23T03:29:15.053Z,96.97
2018-06-23T03:31:41.994Z,96.39
2018-06-23T03:34:08.912Z,96.06
2018-06-23T03:36:36.080Z,95.57
2018-06-23T03:39:04.910Z,96.06
2018-06-23T03:41:31.849Z,95.82
2018-06-23T03:43:58.794Z,96.34
2018-06-23T03:46:25.717Z,97.30
2018-06-23T03:48:52.904Z,97.92
2018-06-23T03:51:19.820Z,98.67
2018-06-23T03:53:46.754Z,98.68
2018-06-23T03:56:13.677Z,97.81
2018-06-23T03:58:40.589Z,97.74
2018-06-23T04:01:08.086Z,97.05
2018-06-23T04:03:35.062Z,98.46
2018-06-23T04:06:02.201Z,99.47
2018-06-23T04:08:29.117Z,100.00
2018-06-23T04:10:56.044Z,100.00
2018-06-23T04:13:22.972Z,100.00
2018-06-23T04:15:49.900Z,100.00
2018-06-23T04:18:16.813Z,100.00
2018-06-23T04:20:43.720Z,100.00
2018-06-23T04:23:10.642Z,100.00
2018-06-23T04:25:37.549Z,100.00
2018-06-23T04:28:04.503Z,100.00
2018-06-23T04:30:31.433Z,100.00
2018-06-23T04:32:58.369Z,100.00
2018-06-23T04:35:25.282Z,100.00
2018-06-23T04:37:52.207Z,100.00
2018-06-23T04:40:19.189Z,100.00
2018-06-23T04:42:46.397Z,100.00
2018-06-23T04:45:13.321Z,100.00
2018-06-23T04:47:40.398Z,100.00
2018-06-23T04:50:07.444Z,100.00
2018-06-23T04:52:34.376Z,100.00
2018-06-23T04:55:01.308Z,100.00
2018-06-23T04:57:28.233Z,100.00
2018-06-23T04:59:55.156Z,100.00
2018-06-23T05:02:22.072Z,100.00
2018-06-23T05:04:48.978Z,100.00
2018-06-23T05:07:15.898Z,100.00
2018-06-23T05:09:42.809Z,100.00
2018-06-23T05:12:09.725Z,100.00
2018-06-23T05:14:36.641Z,100.00
2018-06-23T05:17:04.202Z,100.00
2018-06-23T05:19:31.115Z,100.00
2018-06-23T05:21:58.037Z,100.00
2018-06-23T05:24:24.985Z,100.00
2018-06-23T05:26:51.918Z,100.00
2018-06-23T05:31:52.686Z,100.00
2018-06-23T05:34:19.577Z,100.00
2018-06-23T05:36:46.487Z,100.00
2018-06-23T05:39:13.408Z,100.00
2018-06-23T05:41:40.330Z,100.00
2018-06-23T05:44:07.253Z,100.00
2018-06-23T05:46:34.377Z,100.00
2018-06-23T05:49:01.293Z,100.00
2018-06-23T05:51:28.369Z,100.00
2018-06-23T05:53:55.308Z,100.00
2018-06-23T05:56:22.236Z,100.00
2018-06-23T05:58:49.169Z,100.00
2018-06-23T06:01:16.085Z,100.00
2018-06-23T06:03:43.023Z,100.00
2018-06-23T06:06:09.960Z,100.00
2018-06-23T06:08:36.902Z,100.00
2018-06-23T06:11:03.806Z,100.00
2018-06-23T06:13:30.737Z,100.00
2018-06-23T06:15:57.656Z,100.00
2018-06-23T06:18:24.593Z,98.63
2018-06-23T06:20:51.504Z,98.16
2018-06-23T06:23:18.428Z,97.83
2018-06-23T06:25:45.356Z,97.08
2018-06-23T06:28:12.280Z,96.35
2018-06-23T06:30:39.204Z,96.12
2018-06-23T06:33:06.173Z,95.31
2018-06-23T06:35:33.111Z,95.42
2018-06-23T06:38:00.010Z,94.75
2018-06-23T06:40:26.949Z,94.55
2018-06-23T06:42:53.857Z,94.97
2018-06-23T06:45:20.793Z,92.22
2018-06-23T06:47:47.721Z,91.40
2018-06-23T06:50:14.669Z,91.33
2018-06-23T06:52:41.584Z,90.93
2018-06-23T06:55:08.529Z,89.13
2018-06-23T06:57:35.457Z,88.96
2018-06-23T07:00:02.433Z,87.38
2018-06-23T07:02:29.338Z,87.11
2018-06-23T07:04:56.269Z,85.28
2018-06-23T07:07:23.196Z,85.18
2018-06-23T07:09:50.117Z,86.21
2018-06-23T07:12:17.068Z,88.20
2018-06-23T07:14:43.992Z,88.07
2018-06-23T07:17:10.909Z,88.22
2018-06-23T07:19:37.836Z,88.55
2018-06-23T07:22:04.756Z,87.73
2018-06-23T07:24:31.686Z,88.29
2018-06-23T07:26:58.606Z,86.47
2018-06-23T07:29:25.540Z,82.93
2018-06-23T07:31:52.440Z,81.36
2018-06-23T07:34:19.408Z,78.58
2018-06-23T07:36:46.289Z,79.53
2018-06-23T07:39:13.212Z,79.45
2018-06-23T07:41:40.110Z,82.44
2018-06-23T07:44:07.743Z,83.28
2018-06-23T07:46:35.277Z,83.75
2018-06-23T07:49:02.248Z,84.65
2018-06-23T07:51:29.225Z,86.23
2018-06-23T07:53:56.164Z,89.77
2018-06-23T07:56:23.129Z,90.85
2018-06-23T07:58:50.052Z,93.87
2018-06-23T08:01:16.985Z,95.29
2018-06-23T08:03:43.902Z,95.17
2018-06-23T08:06:10.848Z,92.97
2018-06-23T08:08:37.762Z,90.69
2018-06-23T08:11:04.706Z,90.59
2018-06-23T08:13:31.625Z,90.30
2018-06-23T08:15:58.586Z,88.51
2018-06-23T08:18:25.698Z,86.01
2018-06-23T08:20:52.630Z,85.32
2018-06-23T08:23:19.896Z,83.58
2018-06-23T08:25:46.877Z,81.53
2018-06-23T08:28:13.784Z,79.70
2018-06-23T08:30:40.712Z,78.89
2018-06-23T08:33:07.636Z,78.65
2018-06-23T08:35:34.544Z,79.69
2018-06-23T08:38:01.445Z,80.05
2018-06-23T08:40:28.364Z,81.47
2018-06-23T08:42:55.294Z,84.54
2018-06-23T08:45:22.208Z,88.91
2018-06-23T08:47:49.131Z,88.90
2018-06-23T08:50:16.053Z,89.01
2018-06-23T08:52:42.983Z,89.94
2018-06-23T08:55:09.901Z,88.30
2018-06-23T08:57:36.825Z,87.14
2018-06-23T09:00:04.207Z,86.07
2018-06-23T09:02:31.132Z,84.66
2018-06-23T09:04:58.049Z,83.93
2018-06-23T09:07:25.272Z,82.59
2018-06-23T09:09:52.232Z,80.57
2018-06-23T09:12:19.151Z,79.59
2018-06-23T09:14:46.058Z,80.43
2018-06-23T09:17:12.981Z,81.98
2018-06-23T09:19:40.051Z,83.77
2018-06-23T09:22:06.983Z,84.41
2018-06-23T09:24:33.930Z,82.41
2018-06-23T09:27:00.901Z,82.26
2018-06-23T09:29:27.826Z,79.81
2018-06-23T09:31:54.762Z,78.49
2018-06-23T09:34:21.675Z,76.91
2018-06-23T09:36:48.611Z,77.14
2018-06-23T09:39:15.528Z,76.95
2018-06-23T09:41:42.456Z,76.54
2018-06-23T09:44:09.664Z,78.39
2018-06-23T09:46:38.388Z,79.39
2018-06-23T09:49:05.991Z,78.60
2018-06-23T09:51:32.921Z,79.12
2018-06-23T09:53:59.840Z,77.70
2018-06-23T09:56:26.761Z,76.55
2018-06-23T09:58:53.687Z,75.22
2018-06-23T10:01:20.623Z,73.92
2018-06-23T10:03:49.339Z,73.74
2018-06-23T10:06:17.702Z,73.90
2018-06-23T10:08:46.375Z,72.83
2018-06-23T10:11:15.909Z,73.81
2018-06-23T10:13:42.876Z,73.68
2018-06-23T10:16:09.831Z,72.50
2018-06-23T10:18:36.744Z,73.07
2018-06-23T10:21:03.728Z,73.02
2018-06-23T10:23:30.649Z,74.08
2018-06-23T10:25:57.608Z,74.64
2018-06-23T10:28:24.601Z,74.42
2018-06-23T10:30:51.533Z,74.35
2018-06-23T10:33:18.465Z,74.62
2018-06-23T10:35:45.409Z,73.27
2018-06-23T10:38:12.340Z,73.60
2018-06-23T10:40:39.302Z,75.92
2018-06-23T10:43:06.229Z,78.79
2018-06-23T10:45:33.134Z,82.16
2018-06-23T10:48:00.085Z,82.76
2018-06-23T10:50:27.034Z,83.14
2018-06-23T10:52:53.984Z,82.97
2018-06-23T10:55:20.905Z,81.53
2018-06-23T10:57:47.908Z,81.61
2018-06-23T11:00:14.832Z,82.87
2018-06-23T11:02:41.760Z,84.94
2018-06-23T11:05:08.727Z,86.08
2018-06-23T11:07:35.732Z,87.59
2018-06-23T11:10:02.705Z,91.27
2018-06-23T11:12:29.640Z,93.87
2018-06-23T11:14:56.565Z,94.83
2018-06-23T11:17:23.518Z,97.73
2018-06-23T11:19:50.428Z,98.32
2018-06-23T11:22:17.377Z,99.29
2018-06-23T11:24:44.325Z,95.82
2018-06-23T11:27:11.253Z,94.29
2018-06-23T11:29:38.185Z,89.54
2018-06-23T11:32:05.177Z,89.93
2018-06-23T11:34:32.140Z,88.63
2018-06-23T11:36:59.073Z,86.73
2018-06-23T11:39:26.072Z,85.79
2018-06-23T11:41:52.997Z,84.13
2018-06-23T11:44:19.926Z,83.26
2018-06-23T11:46:46.874Z,83.38
2018-06-23T11:49:13.804Z,81.96
2018-06-23T11:51:40.818Z,81.08
2018-06-23T11:54:07.801Z,81.16
2018-06-23T11:56:34.770Z,82.36
2018-06-23T11:59:01.705Z,84.15
2018-06-23T12:01:28.658Z,88.17
2018-06-23T12:03:55.612Z,89.14
2018-06-23T12:06:24.364Z,91.13
2018-06-23T12:08:51.364Z,89.06
2018-06-23T12:11:18.283Z,87.73
2018-06-23T12:13:45.214Z,87.81
2018-06-23T12:16:12.145Z,87.78
2018-06-23T12:18:39.094Z,88.15
2018-06-23T12:21:06.025Z,90.06
2018-06-23T12:23:32.962Z,90.05
2018-06-23T12:25:59.915Z,87.92
2018-06-23T12:28:26.868Z,87.73
2018-06-23T12:30:53.825Z,85.65
2018-06-23T12:33:20.752Z,83.73
2018-06-23T12:35:47.686Z,82.96
2018-06-23T12:38:14.666Z,82.69
2018-06-23T12:40:41.609Z,81.99
2018-06-23T12:43:08.544Z,80.07
2018-06-23T12:45:35.461Z,79.69
2018-06-23T12:48:02.382Z,78.93
2018-06-23T12:50:29.313Z,79.35
2018-06-23T12:52:56.245Z,78.74
2018-06-23T12:55:23.161Z,78.22
2018-06-23T12:57:50.090Z,79.98
2018-06-23T13:00:17.029Z,80.55
2018-06-23T13:02:43.953Z,79.95
2018-06-23T13:05:10.880Z,79.91
2018-06-23T13:07:37.838Z,82.45
2018-06-23T13:10:04.829Z,87.98
2018-06-23T13:12:31.763Z,91.16
2018-06-23T13:14:58.722Z,93.25
2018-06-23T13:17:25.674Z,93.30
2018-06-23T13:19:52.597Z,91.81
2018-06-23T13:22:19.645Z,91.06
2018-06-23T13:24:46.560Z,89.43
2018-06-23T13:27:13.489Z,87.12
2018-06-23T13:29:40.456Z,85.52
2018-06-23T13:32:07.407Z,84.08
2018-06-23T13:34:34.369Z,84.24
2018-06-23T13:37:01.499Z,84.31
2018-06-23T13:39:28.464Z,81.85
2018-06-23T13:41:55.387Z,81.06
2018-06-23T13:44:22.328Z,80.98
2018-06-23T13:46:49.248Z,80.98
2018-06-23T13:49:16.208Z,80.73
2018-06-23T13:51:43.149Z,80.38
2018-06-23T13:54:10.149Z,79.35
2018-06-23T13:56:39.221Z,79.38
2018-06-23T13:59:08.996Z,78.74
2018-06-23T14:01:38.162Z,78.97
2018-06-23T14:04:05.114Z,78.21
2018-06-23T14:06:32.053Z,77.81
2018-06-23T14:08:58.996Z,77.87
2018-06-23T14:11:25.939Z,76.08
2018-06-23T14:13:52.874Z,75.62
2018-06-23T14:16:19.863Z,75.16
2018-06-23T14:18:46.781Z,74.94
2018-06-23T14:21:13.705Z,75.93
2018-06-23T14:23:40.660Z,77.17
2018-06-23T14:26:07.610Z,76.36
2018-06-23T14:28:34.537Z,74.89
2018-06-23T14:31:01.438Z,74.83
2018-06-23T14:33:28.377Z,77.31
2018-06-23T14:35:55.292Z,78.49
2018-06-23T14:38:22.223Z,78.56
2018-06-23T14:40:49.238Z,82.28
2018-06-23T14:43:16.178Z,86.99
2018-06-23T14:45:43.118Z,91.32
2018-06-23T14:48:10.035Z,91.97
2018-06-23T14:50:37.015Z,90.13
2018-06-23T14:53:03.936Z,90.15
2018-06-23T14:55:30.898Z,90.64
2018-06-23T14:57:57.810Z,91.13
2018-06-23T15:00:24.750Z,89.78
2018-06-23T15:02:51.670Z,88.94
2018-06-23T15:05:18.612Z,88.61
2018-06-23T15:07:45.546Z,87.52
2018-06-23T15:10:24.324Z,87.56
2018-06-23T15:13:02.794Z,85.77
2018-06-23T15:15:29.767Z,84.97
2018-06-23T15:17:56.676Z,84.46
2018-06-23T15:20:23.617Z,85.30
2018-06-23T15:22:50.553Z,84.30
2018-06-23T15:25:17.482Z,84.92
2018-06-23T15:27:44.417Z,83.62
2018-06-23T15:30:11.389Z,84.76
2018-06-23T15:32:38.331Z,85.32
2018-06-23T15:35:05.283Z,84.74
2018-06-23T15:37:32.218Z,84.61
2018-06-23T15:39:59.171Z,85.73
2018-06-23T15:42:26.094Z,87.15
2018-06-23T15:44:53.268Z,87.87
2018-06-23T15:47:20.201Z,88.82
2018-06-23T15:49:47.141Z,90.47
2018-06-23T15:52:14.081Z,91.97
2018-06-23T15:54:41.003Z,93.22
2018-06-23T15:57:07.954Z,94.59
2018-06-23T15:59:34.889Z,94.59
2018-06-23T16:02:01.921Z,94.68
2018-06-23T16:04:28.872Z,94.15
2018-06-23T16:06:55.793Z,93.49
2018-06-23T16:09:22.740Z,92.70
2018-06-23T16:11:49.708Z,90.59
2018-06-23T16:14:16.617Z,90.16
2018-06-23T16:16:43.588Z,89.30
2018-06-23T16:19:10.501Z,88.22
2018-06-23T16:21:37.457Z,89.39
2018-06-23T16:24:04.414Z,91.26
2018-06-23T16:26:31.357Z,90.90
2018-06-23T16:28:58.302Z,91.31
2018-06-23T16:31:25.264Z,90.98
2018-06-23T16:33:52.185Z,91.17
2018-06-23T16:36:19.144Z,91.04
2018-06-23T16:38:46.385Z,91.71
2018-06-23T16:41:13.361Z,91.76
2018-06-23T16:43:40.338Z,91.77
2018-06-23T16:46:07.273Z,91.10
2018-06-23T16:48:34.274Z,92.20
2018-06-23T16:51:01.361Z,93.44
2018-06-23T16:53:28.309Z,96.69
2018-06-23T16:55:55.285Z,99.36
2018-06-23T16:58:22.222Z,99.86
2018-06-23T17:00:49.197Z,99.67
2018-06-23T17:03:16.157Z,99.18
2018-06-23T17:05:43.108Z,97.86
2018-06-23T17:08:10.053Z,97.19
2018-06-23T17:10:36.989Z,98.06
2018-06-23T17:13:03.916Z,96.66
2018-06-23T17:15:30.873Z,97.01
2018-06-23T17:17:57.811Z,97.13
2018-06-23T17:20:24.782Z,95.37
2018-06-23T17:22:51.705Z,95.35
2018-06-23T17:25:18.637Z,94.61
2018-06-23T17:27:45.587Z,95.28
2018-06-23T17:30:12.539Z,95.04
2018-06-23T17:32:39.489Z,95.13
2018-06-23T17:35:06.433Z,95.58
2018-06-23T17:37:33.384Z,95.12
2018-06-23T17:40:00.308Z,95.36
2018-06-23T17:42:27.250Z,95.44
2018-06-23T17:44:54.191Z,94.92
2018-06-23T17:47:21.123Z,95.22
2018-06-23T17:49:48.057Z,95.54
2018-06-23T17:52:14.994Z,95.02
2018-06-23T17:54:41.937Z,94.35
2018-06-23T17:57:09.010Z,93.57
2018-06-23T17:59:35.878Z,93.54
2018-06-23T18:02:02.875Z,92.24
2018-06-23T18:04:29.793Z,92.65
2018-06-23T18:06:56.745Z,92.71
2018-06-23T18:09:23.689Z,92.76
2018-06-23T18:11:50.653Z,92.46
2018-06-23T18:14:17.561Z,92.22
2018-06-23T18:16:44.577Z,92.71
2018-06-23T18:19:11.512Z,93.12
2018-06-23T18:21:38.453Z,92.41
2018-06-23T18:24:05.408Z,92.95
2018-06-23T18:26:32.572Z,92.98
2018-06-23T18:28:59.530Z,93.04
2018-06-23T18:31:26.814Z,94.17
2018-06-23T18:33:53.816Z,94.64
2018-06-23T18:36:20.778Z,95.42
2018-06-23T18:38:47.715Z,95.14
2018-06-23T18:41:14.677Z,95.38
2018-06-23T18:43:41.619Z,95.01
2018-06-23T18:46:08.557Z,95.85
2018-06-23T18:48:35.515Z,98.42
2018-06-23T18:51:02.489Z,100.00
2018-06-23T18:53:29.434Z,100.00
2018-06-23T18:55:56.364Z,100.00
2018-06-23T18:58:23.317Z,100.00
2018-06-23T19:00:50.274Z,100.00
2018-06-23T19:03:17.227Z,100.00
2018-06-23T19:05:44.218Z,100.00
2018-06-23T19:08:11.183Z,100.00
2018-06-23T19:10:38.123Z,100.00
2018-06-23T19:13:05.106Z,100.00
2018-06-23T19:15:32.055Z,100.00
2018-06-23T19:17:58.997Z,100.00
2018-06-23T19:20:25.949Z,100.00
2018-06-23T19:22:52.901Z,99.69
2018-06-23T19:25:19.840Z,98.97
2018-06-23T19:27:46.799Z,98.90
2018-06-23T19:30:13.841Z,97.86
2018-06-23T19:32:40.716Z,98.64
2018-06-23T19:35:07.638Z,97.68
2018-06-23T19:37:34.617Z,97.12
2018-06-23T19:40:01.559Z,96.75
2018-06-23T19:42:28.517Z,96.51
2018-06-23T19:44:55.456Z,96.99
2018-06-23T19:47:22.393Z,96.56
2018-06-23T19:49:49.316Z,96.60
2018-06-23T19:52:16.376Z,95.79
2018-06-23T19:54:43.334Z,95.77
2018-06-23T19:57:10.288Z,94.55
2018-06-23T19:59:37.218Z,94.62
2018-06-23T20:02:04.266Z,93.72
2018-06-23T20:04:31.302Z,94.43
2018-06-23T20:06:58.165Z,94.04
2018-06-23T20:09:25.097Z,92.54
2018-06-23T20:11:52.053Z,92.69
2018-06-23T20:14:19.019Z,92.36
2018-06-23T20:16:45.964Z,91.81
2018-06-23T20:19:12.889Z,91.91
2018-06-23T20:21:39.833Z,91.44
2018-06-23T20:24:06.768Z,91.33
2018-06-23T20:26:33.726Z,90.80
2018-06-23T20:29:00.674Z,90.36
2018-06-23T20:31:27.596Z,89.32
2018-06-23T20:33:54.758Z,89.90
2018-06-23T20:36:22.486Z,89.27
2018-06-23T20:38:49.441Z,89.31
2018-06-23T20:41:16.384Z,89.09
2018-06-23T20:43:43.320Z,88.45
2018-06-23T20:46:10.277Z,88.94
2018-06-23T20:48:37.232Z,88.49
2018-06-23T20:51:04.192Z,88.72
2018-06-23T20:53:31.121Z,86.98
2018-06-23T20:55:58.167Z,87.44
2018-06-23T20:58:25.100Z,87.83
2018-06-23T21:00:52.068Z,86.76
2018-06-23T21:03:19.056Z,87.51
2018-06-23T21:05:46.007Z,86.82
2018-06-23T21:08:12.933Z,87.16
2018-06-23T21:10:43.746Z,86.94
2018-06-23T21:13:11.202Z,86.12
2018-06-23T21:15:38.153Z,85.87
2018-06-23T21:18:05.301Z,85.63
2018-06-23T21:20:32.660Z,85.47
2018-06-23T21:22:59.967Z,85.30
2018-06-23T21:25:27.190Z,86.22
2018-06-23T21:27:54.133Z,85.11
2018-06-23T21:30:21.112Z,85.54
2018-06-23T21:32:48.044Z,85.70
2018-06-23T21:35:15.010Z,85.82
2018-06-23T21:37:41.988Z,86.07
2018-06-23T21:40:09.213Z,86.42
2018-06-23T21:42:36.077Z,86.73
2018-06-23T21:45:03.065Z,86.86
2018-06-23T21:47:30.027Z,86.95
2018-06-23T21:49:57.497Z,86.83
2018-06-23T21:52:24.460Z,87.60
2018-06-23T21:54:51.410Z,87.66
2018-06-23T21:57:18.341Z,88.59
2018-06-23T21:59:45.277Z,88.66
2018-06-23T22:02:12.281Z,88.95
2018-06-23T22:04:39.338Z,90.81
2018-06-23T22:07:07.616Z,90.86
2018-06-23T22:09:34.588Z,91.03
2018-06-23T22:12:01.587Z,90.68
2018-06-23T22:14:28.513Z,92.51
2018-06-23T22:16:55.457Z,92.58
2018-06-23T22:19:22.500Z,92.80
2018-06-23T22:21:49.466Z,93.66
2018-06-23T22:24:16.413Z,92.96
2018-06-23T22:26:43.360Z,93.29
2018-06-23T22:29:10.344Z,92.96
2018-06-23T22:31:37.294Z,92.46
2018-06-23T22:34:04.526Z,92.84
2018-06-23T22:36:31.616Z,92.06
2018-06-23T22:39:02.108Z,92.47
2018-06-23T22:41:29.061Z,93.77
2018-06-23T22:43:56.018Z,93.62
2018-06-23T22:46:22.970Z,94.62
2018-06-23T22:48:49.896Z,94.16
2018-06-23T22:51:17.436Z,94.98
2018-06-23T22:53:44.361Z,95.24
2018-06-23T22:56:11.307Z,95.76
2018-06-23T22:58:38.269Z,96.65
2018-06-23T23:01:05.315Z,96.88
2018-06-23T23:03:32.265Z,97.41
2018-06-23T23:05:59.813Z,97.47
2018-06-23T23:08:26.737Z,98.28
2018-06-23T23:10:53.714Z,99.19
2018-06-23T23:13:20.637Z,99.09
2018-06-23T23:15:47.581Z,99.55
2018-06-23T23:18:14.573Z,100.00
2018-06-23T23:20:41.477Z,100.00
2018-06-23T23:23:08.415Z,100.00
2018-06-23T23:25:35.425Z,100.00
2018-06-23T23:28:02.642Z,100.00
2018-06-23T23:30:30.409Z,100.00
2018-06-23T23:32:57.473Z,100.00
2018-06-23T23:35:24.414Z,100.00
2018-06-23T23:37:51.355Z,100.00
2018-06-23T23:40:18.315Z,100.00
2018-06-23T23:42:45.255Z,100.00
2018-06-23T23:45:12.202Z,100.00
2018-06-23T23:47:39.149Z,100.00
2018-06-23T23:50:06.090Z,100.00
2018-06-23T23:52:33.077Z,100.00
2018-06-23T23:54:59.990Z,100.00
2018-06-23T23:57:26.936Z,100.00
2018-06-23T23:59:53.898Z,100.00
